createdAt,value
2023-04-04T00:00:53.036Z,2.20
2023-04-04T00:03:24.560Z,2.00
2023-04-04T00:05:53.160Z,2.17
2023-04-04T00:08:22.317Z,2.33
2023-04-04T00:10:53.409Z,2.10
2023-04-04T00:13:45.300Z,2.07
2023-04-04T00:16:13.687Z,1.80
2023-04-04T00:18:42.345Z,2.23
2023-04-04T00:21:11.448Z,2.07
2023-04-04T00:23:39.759Z,2.20
2023-04-04T00:26:10.802Z,1.93
2023-04-04T00:28:44.174Z,1.83
2023-04-04T00:31:12.530Z,2.00
2023-04-04T00:36:23.453Z,2.50
2023-04-04T00:38:51.852Z,2.10
2023-04-04T00:41:21.103Z,2.10
2023-04-04T00:43:51.023Z,2.53
2023-04-04T00:46:20.151Z,2.17
2023-04-04T00:48:51.736Z,2.37
2023-04-04T00:51:23.415Z,2.00
2023-04-04T00:53:52.536Z,2.10
2023-04-04T00:56:22.738Z,2.10
2023-04-04T00:58:55.044Z,2.33
2023-04-04T01:01:25.981Z,2.60
2023-04-04T01:03:58.664Z,2.20
2023-04-04T01:06:30.872Z,2.43
2023-04-04T01:08:59.517Z,2.20
2023-04-04T01:11:48.564Z,2.40
2023-04-04T01:14:18.014Z,2.10
2023-04-04T01:16:46.754Z,2.07
2023-04-04T01:19:23.156Z,2.27
2023-04-04T01:21:55.060Z,2.03
2023-04-04T01:24:24.880Z,2.20
2023-04-04T01:26:54.682Z,2.30
2023-04-04T01:29:24.249Z,2.43
2023-04-04T01:31:57.836Z,2.70
2023-04-04T01:34:33.446Z,2.27
2023-04-04T01:37:05.118Z,2.30
2023-04-04T01:39:37.583Z,2.27
2023-04-04T01:42:13.384Z,2.50
2023-04-04T01:44:48.935Z,2.50
2023-04-04T01:47:17.034Z,2.20
2023-04-04T01:49:46.665Z,2.87
2023-04-04T01:52:15.163Z,2.80
2023-04-04T01:54:46.627Z,2.40
2023-04-04T01:57:18.345Z,2.30
2023-04-04T01:59:46.715Z,2.47
2023-04-04T02:02:14.771Z,2.40
2023-04-04T02:04:43.229Z,2.47
2023-04-04T02:07:13.217Z,2.60
2023-04-04T02:09:41.608Z,2.63
2023-04-04T02:12:10.302Z,2.87
2023-04-04T02:14:40.717Z,2.60
2023-04-04T02:17:09.291Z,2.70
2023-04-04T02:19:40.901Z,2.97
2023-04-04T02:22:13.929Z,2.60
2023-04-04T02:24:42.320Z,2.13
2023-04-04T02:27:12.629Z,2.80
2023-04-04T02:29:46.923Z,3.10
2023-04-04T02:32:15.339Z,3.00
2023-04-04T02:34:43.326Z,2.70
2023-04-04T02:37:14.111Z,3.33
2023-04-04T02:39:42.496Z,2.63
2023-04-04T02:42:10.876Z,2.50
2023-04-04T02:44:43.520Z,2.60
2023-04-04T02:47:13.350Z,2.90
2023-04-04T02:49:43.854Z,2.63
2023-04-04T02:52:13.452Z,2.90
2023-04-04T02:54:50.953Z,3.00
2023-04-04T02:57:41.895Z,2.77
2023-04-04T03:00:11.461Z,2.60
2023-04-04T03:02:43.988Z,3.07
2023-04-04T03:05:13.208Z,2.83
2023-04-04T03:07:41.573Z,3.20
2023-04-04T03:10:11.389Z,3.53
2023-04-04T03:12:42.180Z,3.17
2023-04-04T03:15:12.413Z,3.70
2023-04-04T03:17:43.221Z,3.37
2023-04-04T03:20:17.086Z,3.47
2023-04-04T03:22:49.254Z,3.40
2023-04-04T03:25:18.034Z,3.40
2023-04-04T03:27:46.146Z,3.60
2023-04-04T03:30:14.610Z,3.67
2023-04-04T03:32:47.665Z,3.27
2023-04-04T03:35:17.321Z,3.60
2023-04-04T03:37:45.674Z,3.17
2023-04-04T03:40:34.571Z,3.37
2023-04-04T03:43:03.185Z,3.90
2023-04-04T03:45:31.263Z,3.00
2023-04-04T03:48:01.268Z,3.00
2023-04-04T03:50:31.714Z,3.50
2023-04-04T03:53:00.162Z,3.53
2023-04-04T03:55:28.496Z,3.50
2023-04-04T03:57:58.921Z,3.37
2023-04-04T04:00:28.394Z,3.53
2023-04-04T04:03:01.901Z,3.90
2023-04-04T04:05:31.724Z,3.40
2023-04-04T04:08:00.421Z,3.97
2023-04-04T04:10:28.550Z,3.80
2023-04-04T04:12:57.992Z,3.53
2023-04-04T04:15:28.074Z,3.60
2023-04-04T04:17:57.051Z,3.63
2023-04-04T04:20:25.363Z,3.60
2023-04-04T04:22:55.291Z,3.73
2023-04-04T04:25:24.509Z,2.97
2023-04-04T04:27:56.127Z,3.53
2023-04-04T04:30:26.670Z,3.80
2023-04-04T04:32:56.280Z,3.37
2023-04-04T04:35:25.097Z,3.47
2023-04-04T04:37:57.467Z,3.20
2023-04-04T04:40:25.837Z,3.30
2023-04-04T04:42:54.198Z,3.67
2023-04-04T04:45:23.177Z,3.73
2023-04-04T04:47:51.413Z,3.20
2023-04-04T04:50:19.461Z,3.30
2023-04-04T04:52:47.443Z,3.33
2023-04-04T04:55:17.696Z,4.33
2023-04-04T04:57:47.601Z,3.30
2023-04-04T05:00:17.320Z,3.77
2023-04-04T05:02:45.442Z,3.37
2023-04-04T05:05:16.447Z,3.30
2023-04-04T05:07:47.054Z,3.43
2023-04-04T05:10:16.585Z,4.00
2023-04-04T05:12:45.395Z,3.73
2023-04-04T05:15:13.533Z,3.87
2023-04-04T05:17:41.779Z,3.53
2023-04-04T05:20:10.861Z,4.07
2023-04-04T05:22:43.301Z,4.43
2023-04-04T05:25:11.440Z,3.97
2023-04-04T05:27:40.976Z,3.70
2023-04-04T05:30:09.764Z,4.10
2023-04-04T05:32:38.013Z,4.30
2023-04-04T05:35:10.082Z,4.03
2023-04-04T05:37:41.109Z,4.00
2023-04-04T05:40:10.460Z,4.07
2023-04-04T05:42:39.763Z,4.47
2023-04-04T05:45:09.165Z,4.07
2023-04-04T05:47:37.147Z,4.10
2023-04-04T05:50:06.508Z,3.73
2023-04-04T05:52:34.542Z,4.07
2023-04-04T05:55:02.849Z,3.83
2023-04-04T05:57:30.954Z,3.50
2023-04-04T06:00:00.411Z,4.13
2023-04-04T06:02:29.360Z,4.00
2023-04-04T06:04:57.400Z,3.60
2023-04-04T06:07:25.454Z,3.67
2023-04-04T06:09:53.421Z,4.27
2023-04-04T06:12:21.867Z,3.83
2023-04-04T06:14:49.893Z,4.10
2023-04-04T06:17:19.519Z,3.50
2023-04-04T06:19:47.668Z,3.80
2023-04-04T06:22:16.087Z,3.47
2023-04-04T06:24:44.247Z,3.70
2023-04-04T06:27:12.270Z,4.00
2023-04-04T06:29:40.275Z,3.87
2023-04-04T06:32:08.392Z,3.70
2023-04-04T06:34:41.009Z,3.37
2023-04-04T06:37:08.993Z,3.67
2023-04-04T06:39:37.376Z,4.10
2023-04-04T06:42:05.466Z,3.77
2023-04-04T06:44:33.685Z,4.00
2023-04-04T06:47:02.063Z,3.53
2023-04-04T06:49:30.052Z,4.40
2023-04-04T06:52:00.469Z,4.00
2023-04-04T06:54:28.444Z,3.60
2023-04-04T06:56:59.070Z,4.07
2023-04-04T06:59:27.761Z,4.00
2023-04-04T07:01:58.414Z,4.00
2023-04-04T07:04:27.217Z,3.90
2023-04-04T07:06:55.212Z,3.40
2023-04-04T07:09:29.235Z,3.33
2023-04-04T07:11:58.119Z,3.33
2023-04-04T07:14:26.223Z,3.80
2023-04-04T07:16:55.121Z,3.70
2023-04-04T07:19:24.462Z,3.27
2023-04-04T07:21:53.582Z,3.60
2023-04-04T07:24:21.615Z,3.90
2023-04-04T07:26:54.080Z,4.43
2023-04-04T07:29:23.913Z,3.53
2023-04-04T07:31:52.194Z,3.63
2023-04-04T07:34:20.816Z,2.97
2023-04-04T07:36:50.748Z,3.40
2023-04-04T07:39:18.656Z,3.03
2023-04-04T07:41:46.730Z,3.37
2023-04-04T07:44:16.060Z,3.47
2023-04-04T07:46:44.895Z,3.60
2023-04-04T07:49:14.590Z,4.30
2023-04-04T07:51:42.844Z,3.20
2023-04-04T07:54:10.790Z,3.80
2023-04-04T07:56:38.870Z,3.80
2023-04-04T07:59:10.560Z,3.00
2023-04-04T08:01:40.180Z,3.47
2023-04-04T08:04:10.054Z,3.37
2023-04-04T08:06:40.062Z,2.97
2023-04-04T08:09:08.781Z,2.60
2023-04-04T08:11:37.801Z,2.77
2023-04-04T08:14:06.610Z,2.43
2023-04-04T08:16:35.081Z,2.63
2023-04-04T08:19:07.263Z,3.10
2023-04-04T08:21:35.406Z,2.40
2023-04-04T08:24:03.784Z,1.93
2023-04-04T08:29:18.133Z,2.60
2023-04-04T08:31:46.554Z,2.13
2023-04-04T08:34:16.558Z,1.97
2023-04-04T08:36:46.949Z,2.70
2023-04-04T08:39:15.104Z,2.37
2023-04-04T08:41:46.886Z,2.70
2023-04-04T08:44:24.482Z,2.73
2023-04-04T08:46:53.539Z,2.60
2023-04-04T08:49:26.870Z,2.73
2023-04-04T08:52:00.231Z,3.10
2023-04-04T08:54:32.328Z,2.77
2023-04-04T08:57:00.292Z,3.13
2023-04-04T08:59:28.575Z,2.80
2023-04-04T09:02:01.644Z,2.80
2023-04-04T09:04:32.227Z,2.40
2023-04-04T09:07:01.398Z,2.20
2023-04-04T09:09:29.822Z,2.37
2023-04-04T09:11:57.925Z,2.40
2023-04-04T09:14:27.642Z,2.50
2023-04-04T09:16:55.662Z,2.53
2023-04-04T09:19:26.270Z,2.77
2023-04-04T09:21:56.978Z,2.53
2023-04-04T09:24:25.199Z,2.03
2023-04-04T09:26:58.326Z,2.80
2023-04-04T09:29:29.060Z,3.00
2023-04-04T09:31:57.144Z,2.53
2023-04-04T09:34:25.556Z,2.80
2023-04-04T09:36:56.284Z,2.83
2023-04-04T09:39:25.026Z,2.70
2023-04-04T09:41:54.537Z,2.67
2023-04-04T09:44:25.947Z,2.63
2023-04-04T09:46:53.948Z,2.97
2023-04-04T09:49:22.537Z,3.07
2023-04-04T09:51:54.142Z,3.23
2023-04-04T09:54:29.418Z,3.13
2023-04-04T09:56:58.211Z,2.87
2023-04-04T09:59:26.206Z,3.00
2023-04-04T10:01:56.584Z,3.00
2023-04-04T10:04:27.251Z,2.13
2023-04-04T10:06:55.906Z,2.50
2023-04-04T10:09:25.656Z,2.93
2023-04-04T10:12:10.000Z,2.87
2023-04-04T10:14:38.611Z,2.50
2023-04-04T10:17:10.766Z,2.50
2023-04-04T10:19:39.426Z,3.37
2023-04-04T10:22:07.630Z,2.67
2023-04-04T10:24:37.238Z,3.00
2023-04-04T10:27:05.287Z,3.00
2023-04-04T10:29:33.915Z,2.60
2023-04-04T10:32:06.448Z,2.40
2023-04-04T10:34:40.866Z,3.10
2023-04-04T10:37:13.718Z,2.83
2023-04-04T10:39:53.316Z,2.23
2023-04-04T10:42:21.696Z,2.67
2023-04-04T10:44:49.842Z,2.77
2023-04-04T10:47:19.714Z,2.80
2023-04-04T10:49:49.554Z,3.07
2023-04-04T10:52:19.981Z,2.77
2023-04-04T10:54:52.289Z,3.00
2023-04-04T10:57:21.287Z,3.67
2023-04-04T11:00:00.160Z,2.90
2023-04-04T11:02:50.020Z,3.33
2023-04-04T11:05:24.091Z,2.70
2023-04-04T11:10:35.296Z,2.73
2023-04-04T11:13:12.956Z,3.00
2023-04-04T11:15:55.119Z,3.13
2023-04-04T11:18:33.425Z,3.20
2023-04-04T11:21:03.262Z,2.97
2023-04-04T11:24:00.367Z,3.00
2023-04-04T11:26:39.599Z,3.13
2023-04-04T11:29:08.230Z,2.80
2023-04-04T11:31:40.437Z,3.03
2023-04-04T11:34:09.762Z,2.90
2023-04-04T11:36:52.054Z,3.00
2023-04-04T11:39:26.863Z,2.90
2023-04-04T11:41:58.772Z,3.20
2023-04-04T11:44:30.846Z,3.27
2023-04-04T11:47:04.453Z,2.90
2023-04-04T11:49:35.444Z,3.10
2023-04-04T11:52:06.734Z,3.23
2023-04-04T11:54:35.081Z,3.10
2023-04-04T11:57:06.570Z,3.10
2023-04-04T11:59:35.127Z,3.23
2023-04-04T12:02:03.303Z,3.70
2023-04-04T12:04:31.495Z,3.40
2023-04-04T12:07:00.496Z,2.93
2023-04-04T12:09:28.570Z,3.33
2023-04-04T12:12:02.549Z,3.57
2023-04-04T12:14:34.416Z,3.10
2023-04-04T12:17:04.098Z,3.17
2023-04-04T12:19:32.134Z,3.07
2023-04-04T12:22:00.135Z,3.00
2023-04-04T12:24:28.377Z,3.10
2023-04-04T12:26:58.387Z,2.93
2023-04-04T12:29:28.858Z,2.93
2023-04-04T12:31:58.656Z,3.23
2023-04-04T12:37:04.088Z,3.60
2023-04-04T12:39:32.246Z,3.70
2023-04-04T12:42:02.381Z,3.50
2023-04-04T12:44:32.344Z,3.80
2023-04-04T12:47:03.017Z,3.57
2023-04-04T12:49:32.617Z,3.60
2023-04-04T12:52:04.827Z,3.20
2023-04-04T12:54:35.135Z,3.50
2023-04-04T12:57:05.795Z,3.77
2023-04-04T12:59:35.619Z,2.90
2023-04-04T13:02:08.904Z,3.40
2023-04-04T13:04:37.831Z,3.50
2023-04-04T13:07:06.207Z,3.70
2023-04-04T13:09:35.727Z,4.30
2023-04-04T13:12:08.543Z,3.30
2023-04-04T13:14:59.245Z,3.83
2023-04-04T13:17:42.724Z,3.20
2023-04-04T13:20:11.368Z,3.60
2023-04-04T13:22:40.928Z,3.30
2023-04-04T13:25:10.870Z,3.30
2023-04-04T13:27:39.169Z,3.73
2023-04-04T13:30:10.114Z,3.77
2023-04-04T13:32:40.877Z,3.20
2023-04-04T13:35:10.045Z,3.00
2023-04-04T13:37:37.977Z,3.03
2023-04-04T13:40:06.995Z,3.50
2023-04-04T13:42:35.457Z,3.30
2023-04-04T13:45:03.469Z,3.30
2023-04-04T13:47:31.584Z,3.40
2023-04-04T13:50:01.022Z,3.20
2023-04-04T13:52:29.052Z,3.60
2023-04-04T13:54:57.613Z,3.00
2023-04-04T13:57:27.392Z,2.77
2023-04-04T13:59:56.383Z,2.90
2023-04-04T14:02:24.441Z,2.90
2023-04-04T14:04:52.912Z,3.23
2023-04-04T14:07:22.243Z,3.10
2023-04-04T14:09:50.193Z,3.27
2023-04-04T14:12:18.359Z,3.25
2023-04-04T14:14:46.337Z,2.77
2023-04-04T14:17:14.299Z,3.23
2023-04-04T14:19:44.350Z,3.53
2023-04-04T14:22:12.295Z,2.80
2023-04-04T14:24:41.639Z,3.13
2023-04-04T14:27:09.776Z,3.22
2023-04-04T14:29:37.702Z,2.60
2023-04-04T14:32:05.878Z,3.30
2023-04-04T14:34:34.049Z,2.78
2023-04-04T14:37:02.029Z,3.33
2023-04-04T14:39:30.008Z,3.45
2023-04-04T14:41:59.267Z,3.03
2023-04-04T14:44:27.460Z,3.17
2023-04-04T14:46:55.493Z,2.80
2023-04-04T14:49:24.676Z,2.65
2023-04-04T14:51:52.922Z,2.80
2023-04-04T14:54:20.950Z,2.95
2023-04-04T14:56:48.983Z,3.00
2023-04-04T14:59:18.568Z,2.97
2023-04-04T15:01:46.762Z,3.35
2023-04-04T15:04:14.736Z,3.22
2023-04-04T15:06:43.414Z,3.45
2023-04-04T15:09:11.763Z,3.50
2023-04-04T15:11:41.439Z,2.97
2023-04-04T15:14:09.452Z,2.75
2023-04-04T15:16:38.875Z,2.78
2023-04-04T15:19:06.861Z,3.05
2023-04-04T15:21:34.744Z,2.70
2023-04-04T15:24:02.714Z,3.00
2023-04-04T15:26:30.721Z,3.15
2023-04-04T15:28:58.667Z,3.40
2023-04-04T15:31:27.266Z,3.58
2023-04-04T15:33:59.115Z,3.22
2023-04-04T15:36:28.847Z,3.83
2023-04-04T15:38:57.177Z,4.25
2023-04-04T15:41:25.168Z,3.45
2023-04-04T15:43:53.217Z,3.67
2023-04-04T15:46:21.162Z,3.58
2023-04-04T15:48:52.166Z,3.28
2023-04-04T15:51:22.079Z,3.38
2023-04-04T15:53:50.045Z,3.53
2023-04-04T15:56:17.990Z,3.35
2023-04-04T15:58:45.950Z,3.70
2023-04-04T16:01:14.117Z,3.42
2023-04-04T16:03:43.663Z,3.58
2023-04-04T16:06:13.108Z,3.53
2023-04-04T16:08:44.092Z,3.33
2023-04-04T16:11:12.338Z,3.63
2023-04-04T16:13:40.648Z,3.92
2023-04-04T16:16:08.652Z,4.28
2023-04-04T16:18:37.201Z,3.80
2023-04-04T16:21:05.723Z,4.00
2023-04-04T16:23:33.769Z,3.70
2023-04-04T16:26:03.107Z,3.90
2023-04-04T16:28:31.098Z,3.90
2023-04-04T16:30:59.680Z,4.10
2023-04-04T16:33:27.720Z,3.87
2023-04-04T16:35:56.492Z,4.35
2023-04-04T16:38:24.469Z,4.20
2023-04-04T16:40:52.565Z,4.20
2023-04-04T16:43:21.903Z,4.90
2023-04-04T16:45:50.089Z,4.03
2023-04-04T16:48:18.153Z,4.70
2023-04-04T16:50:46.441Z,4.27
2023-04-04T16:53:14.542Z,4.27
2023-04-04T16:55:44.445Z,4.47
2023-04-04T16:58:12.567Z,4.93
2023-04-04T17:00:42.613Z,4.23
2023-04-04T17:03:11.060Z,4.40
2023-04-04T17:05:39.081Z,4.20
2023-04-04T17:08:07.523Z,4.43
2023-04-04T17:10:37.463Z,4.20
2023-04-04T17:13:06.408Z,4.33
2023-04-04T17:15:34.655Z,3.97
2023-04-04T17:18:04.304Z,4.63
2023-04-04T17:20:34.385Z,4.30
2023-04-04T17:23:02.685Z,4.60
2023-04-04T17:25:31.656Z,4.47
2023-04-04T17:27:59.675Z,4.30
2023-04-04T17:30:27.835Z,4.63
2023-04-04T17:32:56.426Z,4.70
2023-04-04T17:35:26.714Z,4.70
2023-04-04T17:37:54.709Z,4.67
2023-04-04T17:40:23.717Z,4.83
2023-04-04T17:42:51.808Z,4.33
2023-04-04T17:45:20.422Z,5.20
2023-04-04T17:47:48.520Z,4.50
2023-04-04T17:50:16.868Z,5.10
2023-04-04T17:52:46.331Z,5.07
2023-04-04T17:55:14.353Z,5.10
2023-04-04T17:57:45.089Z,5.57
2023-04-04T18:00:15.548Z,5.30
2023-04-04T18:02:43.668Z,5.87
2023-04-04T18:05:13.671Z,5.60
2023-04-04T18:07:42.043Z,6.23
2023-04-04T18:10:13.729Z,5.80
2023-04-04T18:12:42.806Z,6.37
2023-04-04T18:15:12.306Z,6.13
2023-04-04T18:17:41.513Z,5.53
2023-04-04T18:20:10.559Z,5.93
2023-04-04T18:22:40.891Z,6.30
2023-04-04T18:25:13.665Z,6.20
2023-04-04T18:27:42.089Z,5.83
2023-04-04T18:30:11.558Z,6.55
2023-04-04T18:32:39.681Z,5.73
2023-04-04T18:35:09.243Z,5.67
2023-04-04T18:37:37.250Z,5.43
2023-04-04T18:40:05.890Z,5.60
2023-04-04T18:42:37.674Z,5.73
2023-04-04T18:45:08.004Z,5.87
2023-04-04T18:47:36.181Z,5.80
2023-04-04T18:50:04.464Z,5.40
2023-04-04T18:52:32.594Z,5.60
2023-04-04T18:55:00.587Z,6.37
2023-04-04T18:57:28.825Z,5.97
2023-04-04T18:59:58.320Z,5.77
2023-04-04T19:02:26.405Z,6.30
2023-04-04T19:04:56.418Z,6.20
2023-04-04T19:07:32.476Z,6.30
2023-04-04T19:10:04.510Z,6.47
2023-04-04T19:12:32.842Z,6.40
2023-04-04T19:15:02.532Z,6.00
2023-04-04T19:17:31.687Z,6.13
2023-04-04T19:20:00.250Z,6.50
2023-04-04T19:22:30.422Z,6.27
2023-04-04T19:24:59.530Z,6.40
2023-04-04T19:27:29.567Z,6.73
2023-04-04T19:29:57.691Z,6.90
2023-04-04T19:32:29.034Z,6.33
2023-04-04T19:34:58.494Z,6.57
2023-04-04T19:37:26.646Z,6.73
2023-04-04T19:39:54.799Z,7.63
2023-04-04T19:42:29.905Z,7.10
2023-04-04T19:44:58.229Z,6.97
2023-04-04T19:47:27.958Z,7.40
2023-04-04T19:49:56.118Z,8.10
2023-04-04T19:52:25.041Z,7.80
2023-04-04T19:54:54.086Z,7.53
2023-04-04T19:57:25.470Z,7.67
2023-04-04T20:00:14.353Z,7.83
2023-04-04T20:03:09.684Z,7.03
2023-04-04T20:06:19.803Z,7.70
2023-04-04T20:08:51.779Z,7.80
2023-04-04T20:11:25.646Z,8.20
2023-04-04T20:13:56.257Z,8.03
2023-04-04T20:16:30.861Z,14.13
2023-04-04T20:19:02.497Z,8.33
2023-04-04T20:21:32.480Z,8.43
2023-04-04T20:24:03.727Z,8.07
2023-04-04T20:26:54.245Z,8.70
2023-04-04T20:29:27.577Z,8.33
2023-04-04T20:31:57.592Z,8.90
2023-04-04T20:34:33.995Z,8.33
2023-04-04T20:37:06.303Z,8.80
2023-04-04T20:39:41.255Z,8.70
2023-04-04T20:42:19.383Z,9.40
2023-04-04T20:44:48.042Z,9.60
2023-04-04T20:47:45.416Z,9.27
2023-04-04T20:50:46.420Z,9.60
2023-04-04T20:53:20.261Z,9.27
2023-04-04T20:55:50.819Z,9.17
2023-04-04T20:58:29.196Z,9.23
2023-04-04T21:00:59.589Z,9.27
2023-04-04T21:03:38.760Z,10.57
2023-04-04T21:06:14.104Z,9.97
2023-04-04T21:08:47.274Z,9.73
2023-04-04T21:11:23.177Z,10.43
2023-04-04T21:13:51.585Z,9.17
2023-04-04T21:16:22.372Z,9.97
2023-04-04T21:18:54.509Z,9.73
2023-04-04T21:21:24.116Z,9.37
2023-04-04T21:23:53.767Z,10.37
2023-04-04T21:26:28.712Z,9.43
2023-04-04T21:29:01.176Z,9.83
2023-04-04T21:31:37.448Z,9.93
2023-04-04T21:34:12.486Z,9.50
2023-04-04T21:36:42.960Z,9.70
2023-04-04T21:39:14.794Z,10.07
2023-04-04T21:41:45.358Z,10.63
2023-04-04T21:44:13.654Z,9.43
2023-04-04T21:46:42.572Z,10.43
2023-04-04T21:49:11.406Z,10.07
2023-04-04T21:51:45.965Z,9.70
2023-04-04T21:54:17.162Z,10.53
2023-04-04T21:56:48.306Z,9.03
2023-04-04T21:59:16.514Z,10.17
2023-04-04T22:01:44.724Z,9.37
2023-04-04T22:04:12.891Z,10.50
2023-04-04T22:07:03.230Z,9.90
2023-04-04T22:09:31.375Z,9.97
2023-04-04T22:12:02.897Z,11.13
2023-04-04T22:14:32.123Z,9.63
2023-04-04T22:17:00.212Z,10.33
2023-04-04T22:19:34.777Z,10.07
2023-04-04T22:22:05.436Z,10.50
2023-04-04T22:24:34.524Z,9.67
2023-04-04T22:27:03.881Z,9.97
2023-04-04T22:29:34.645Z,10.00
2023-04-04T22:32:02.985Z,10.23
2023-04-04T22:34:32.409Z,9.47
2023-04-04T22:37:03.524Z,9.80
2023-04-04T22:39:33.147Z,9.20
2023-04-04T22:42:01.254Z,9.47
2023-04-04T22:44:29.389Z,9.93
2023-04-04T22:47:01.903Z,9.60
2023-04-04T22:49:32.852Z,9.07
2023-04-04T22:52:00.933Z,9.10
2023-04-04T22:54:29.078Z,9.57
2023-04-04T22:56:59.229Z,8.80
2023-04-04T22:59:33.058Z,8.87
2023-04-04T23:02:01.286Z,9.37
2023-04-04T23:04:29.890Z,8.53
2023-04-04T23:06:58.565Z,8.50
2023-04-04T23:09:30.091Z,9.50
2023-04-04T23:11:59.844Z,8.70
2023-04-04T23:14:30.964Z,9.10
2023-04-04T23:17:04.987Z,8.80
2023-04-04T23:19:33.495Z,9.00
2023-04-04T23:22:01.696Z,9.07
2023-04-04T23:24:30.039Z,8.90
2023-04-04T23:26:59.459Z,8.77
2023-04-04T23:29:27.472Z,9.07
2023-04-04T23:31:56.988Z,9.43
2023-04-04T23:34:24.996Z,8.70
2023-04-04T23:36:54.462Z,9.20
2023-04-04T23:39:22.851Z,8.87
2023-04-04T23:41:51.173Z,9.23
2023-04-04T23:44:20.640Z,9.23
2023-04-04T23:46:50.997Z,8.67
2023-04-04T23:49:19.940Z,8.73
2023-04-04T23:51:51.148Z,9.17
2023-04-04T23:54:19.187Z,9.57
2023-04-04T23:56:47.325Z,8.97
2023-04-04T23:59:16.181Z,9.40
